sensor_id;sensor_type;location;lat;lon;timestamp;P1;durP1;ratioP1;P2;durP2;ratioP2
15667;SDS011;7934;48.710;9.024;2022-07-29T00:00:35;6.07;;;5.57;;
15667;SDS011;7934;48.710;9.024;2022-07-29T00:03:03;5.30;;;5.00;;
15667;SDS011;7934;48.710;9.024;2022-07-29T00:05:30;7.63;;;6.03;;
15667;SDS011;7934;48.710;9.024;2022-07-29T00:07:57;7.43;;;5.93;;
15667;SDS011;7934;48.710;9.024;2022-07-29T00:10:24;7.03;;;6.00;;
15667;SDS011;7934;48.710;9.024;2022-07-29T00:12:51;5.73;;;5.37;;
15667;SDS011;7934;48.710;9.024;2022-07-29T00:15:20;6.13;;;5.57;;
15667;SDS011;7934;48.710;9.024;2022-07-29T00:17:47;6.63;;;6.10;;
15667;SDS011;7934;48.710;9.024;2022-07-29T00:20:14;6.27;;;5.77;;
15667;SDS011;7934;48.710;9.024;2022-07-29T00:22:41;5.93;;;5.57;;
15667;SDS011;7934;48.710;9.024;2022-07-29T00:25:09;6.50;;;5.73;;
15667;SDS011;7934;48.710;9.024;2022-07-29T00:27:36;6.90;;;6.20;;
15667;SDS011;7934;48.710;9.024;2022-07-29T00:30:03;6.77;;;5.93;;
15667;SDS011;7934;48.710;9.024;2022-07-29T00:32:32;9.03;;;5.90;;
15667;SDS011;7934;48.710;9.024;2022-07-29T00:34:59;8.17;;;5.53;;
15667;SDS011;7934;48.710;9.024;2022-07-29T00:37:44;6.13;;;5.57;;
15667;SDS011;7934;48.710;9.024;2022-07-29T00:40:11;8.00;;;5.23;;
15667;SDS011;7934;48.710;9.024;2022-07-29T00:42:42;8.00;;;6.70;;
15667;SDS011;7934;48.710;9.024;2022-07-29T00:45:09;6.23;;;5.73;;
15667;SDS011;7934;48.710;9.024;2022-07-29T00:47:38;5.97;;;5.47;;
15667;SDS011;7934;48.710;9.024;2022-07-29T00:50:05;5.87;;;5.37;;
15667;SDS011;7934;48.710;9.024;2022-07-29T00:52:33;6.10;;;5.53;;
15667;SDS011;7934;48.710;9.024;2022-07-29T00:55:02;6.47;;;5.53;;
15667;SDS011;7934;48.710;9.024;2022-07-29T00:57:29;4.80;;;4.50;;
15667;SDS011;7934;48.710;9.024;2022-07-29T00:59:56;6.40;;;5.03;;
15667;SDS011;7934;48.710;9.024;2022-07-29T01:02:23;5.07;;;4.67;;
15667;SDS011;7934;48.710;9.024;2022-07-29T01:04:53;7.40;;;4.70;;
15667;SDS011;7934;48.710;9.024;2022-07-29T01:07:21;5.07;;;4.77;;
15667;SDS011;7934;48.710;9.024;2022-07-29T01:09:49;5.50;;;5.00;;
15667;SDS011;7934;48.710;9.024;2022-07-29T01:12:17;6.10;;;4.87;;
15667;SDS011;7934;48.710;9.024;2022-07-29T01:14:45;5.20;;;4.77;;
15667;SDS011;7934;48.710;9.024;2022-07-29T01:17:14;5.93;;;5.43;;
15667;SDS011;7934;48.710;9.024;2022-07-29T01:19:48;5.27;;;4.90;;
15667;SDS011;7934;48.710;9.024;2022-07-29T01:22:24;6.90;;;5.17;;
15667;SDS011;7934;48.710;9.024;2022-07-29T01:25:00;5.77;;;5.27;;
15667;SDS011;7934;48.710;9.024;2022-07-29T01:27:32;6.07;;;5.43;;
15667;SDS011;7934;48.710;9.024;2022-07-29T01:30:06;5.40;;;5.07;;
15667;SDS011;7934;48.710;9.024;2022-07-29T01:32:35;5.63;;;5.13;;
15667;SDS011;7934;48.710;9.024;2022-07-29T01:35:03;5.90;;;5.47;;
15667;SDS011;7934;48.710;9.024;2022-07-29T01:37:33;6.27;;;5.87;;
15667;SDS011;7934;48.710;9.024;2022-07-29T01:40:03;7.30;;;6.13;;
15667;SDS011;7934;48.710;9.024;2022-07-29T01:42:32;6.97;;;6.30;;
15667;SDS011;7934;48.710;9.024;2022-07-29T01:45:02;7.37;;;6.70;;
15667;SDS011;7934;48.710;9.024;2022-07-29T01:47:33;6.67;;;6.00;;
15667;SDS011;7934;48.710;9.024;2022-07-29T01:50:01;9.07;;;6.57;;
15667;SDS011;7934;48.710;9.024;2022-07-29T01:52:31;7.20;;;6.30;;
15667;SDS011;7934;48.710;9.024;2022-07-29T01:55:02;6.63;;;6.10;;
15667;SDS011;7934;48.710;9.024;2022-07-29T01:57:31;7.40;;;6.80;;
15667;SDS011;7934;48.710;9.024;2022-07-29T02:00:00;5.80;;;5.40;;
15667;SDS011;7934;48.710;9.024;2022-07-29T02:02:28;6.27;;;5.67;;
15667;SDS011;7934;48.710;9.024;2022-07-29T02:04:58;6.03;;;5.43;;
15667;SDS011;7934;48.710;9.024;2022-07-29T02:07:27;5.93;;;5.40;;
15667;SDS011;7934;48.710;9.024;2022-07-29T02:09:55;6.00;;;5.40;;
15667;SDS011;7934;48.710;9.024;2022-07-29T02:12:22;5.17;;;4.73;;
15667;SDS011;7934;48.710;9.024;2022-07-29T02:14:51;6.50;;;5.10;;
15667;SDS011;7934;48.710;9.024;2022-07-29T02:17:21;6.10;;;5.60;;
15667;SDS011;7934;48.710;9.024;2022-07-29T02:19:48;5.23;;;4.83;;
15667;SDS011;7934;48.710;9.024;2022-07-29T02:22:17;5.63;;;5.23;;
15667;SDS011;7934;48.710;9.024;2022-07-29T02:24:45;7.07;;;5.30;;
15667;SDS011;7934;48.710;9.024;2022-07-29T02:27:13;5.60;;;4.97;;
15667;SDS011;7934;48.710;9.024;2022-07-29T02:29:41;6.40;;;5.27;;
15667;SDS011;7934;48.710;9.024;2022-07-29T02:32:08;5.50;;;5.17;;
15667;SDS011;7934;48.710;9.024;2022-07-29T02:34:37;5.77;;;5.03;;
15667;SDS011;7934;48.710;9.024;2022-07-29T02:37:05;6.20;;;4.77;;
15667;SDS011;7934;48.710;9.024;2022-07-29T02:39:33;5.20;;;4.70;;
15667;SDS011;7934;48.710;9.024;2022-07-29T02:42:01;4.80;;;4.43;;
15667;SDS011;7934;48.710;9.024;2022-07-29T02:44:29;5.27;;;4.87;;
15667;SDS011;7934;48.710;9.024;2022-07-29T02:46:58;5.33;;;4.83;;
15667;SDS011;7934;48.710;9.024;2022-07-29T02:49:31;4.87;;;4.30;;
15667;SDS011;7934;48.710;9.024;2022-07-29T02:52:01;5.10;;;4.53;;
15667;SDS011;7934;48.710;9.024;2022-07-29T02:54:31;5.07;;;4.57;;
15667;SDS011;7934;48.710;9.024;2022-07-29T02:57:00;5.20;;;4.77;;
15667;SDS011;7934;48.710;9.024;2022-07-29T02:59:29;5.47;;;5.03;;
15667;SDS011;7934;48.710;9.024;2022-07-29T03:01:57;5.90;;;4.70;;
15667;SDS011;7934;48.710;9.024;2022-07-29T03:04:26;5.57;;;5.07;;
15667;SDS011;7934;48.710;9.024;2022-07-29T03:06:54;5.90;;;5.47;;
15667;SDS011;7934;48.710;9.024;2022-07-29T03:09:21;5.80;;;5.33;;
15667;SDS011;7934;48.710;9.024;2022-07-29T03:11:50;6.23;;;5.63;;
15667;SDS011;7934;48.710;9.024;2022-07-29T03:14:20;6.23;;;5.63;;
15667;SDS011;7934;48.710;9.024;2022-07-29T03:16:48;7.73;;;6.13;;
15667;SDS011;7934;48.710;9.024;2022-07-29T03:19:15;6.37;;;5.87;;
15667;SDS011;7934;48.710;9.024;2022-07-29T03:21:43;6.90;;;6.30;;
15667;SDS011;7934;48.710;9.024;2022-07-29T03:24:22;6.33;;;5.80;;
15667;SDS011;7934;48.710;9.024;2022-07-29T03:26:51;8.00;;;7.20;;
15667;SDS011;7934;48.710;9.024;2022-07-29T03:29:18;8.83;;;7.03;;
15667;SDS011;7934;48.710;9.024;2022-07-29T03:31:47;8.20;;;7.40;;
15667;SDS011;7934;48.710;9.024;2022-07-29T03:34:14;8.27;;;7.30;;
15667;SDS011;7934;48.710;9.024;2022-07-29T03:36:41;7.23;;;6.67;;
15667;SDS011;7934;48.710;9.024;2022-07-29T03:39:08;7.40;;;6.80;;
15667;SDS011;7934;48.710;9.024;2022-07-29T03:41:36;7.37;;;6.63;;
15667;SDS011;7934;48.710;9.024;2022-07-29T03:44:03;7.40;;;6.30;;
15667;SDS011;7934;48.710;9.024;2022-07-29T03:46:31;7.20;;;6.60;;
15667;SDS011;7934;48.710;9.024;2022-07-29T03:49:01;6.97;;;6.47;;
15667;SDS011;7934;48.710;9.024;2022-07-29T03:51:29;7.53;;;7.03;;
15667;SDS011;7934;48.710;9.024;2022-07-29T03:53:57;6.43;;;5.93;;
15667;SDS011;7934;48.710;9.024;2022-07-29T03:56:24;6.20;;;5.70;;
15667;SDS011;7934;48.710;9.024;2022-07-29T03:58:52;5.73;;;5.27;;
15667;SDS011;7934;48.710;9.024;2022-07-29T04:01:20;5.67;;;5.17;;
15667;SDS011;7934;48.710;9.024;2022-07-29T04:03:47;6.20;;;5.80;;
15667;SDS011;7934;48.710;9.024;2022-07-29T04:06:16;6.43;;;5.80;;
15667;SDS011;7934;48.710;9.024;2022-07-29T04:08:43;5.80;;;5.40;;
15667;SDS011;7934;48.710;9.024;2022-07-29T04:11:10;5.53;;;5.10;;
15667;SDS011;7934;48.710;9.024;2022-07-29T04:13:37;5.47;;;5.07;;
15667;SDS011;7934;48.710;9.024;2022-07-29T04:16:04;4.90;;;4.60;;
15667;SDS011;7934;48.710;9.024;2022-07-29T04:18:31;4.77;;;4.37;;
15667;SDS011;7934;48.710;9.024;2022-07-29T04:20:59;5.20;;;4.20;;
15667;SDS011;7934;48.710;9.024;2022-07-29T04:23:27;4.37;;;4.17;;
15667;SDS011;7934;48.710;9.024;2022-07-29T04:25:57;5.03;;;4.60;;
15667;SDS011;7934;48.710;9.024;2022-07-29T04:28:26;4.30;;;3.90;;
15667;SDS011;7934;48.710;9.024;2022-07-29T04:30:53;5.17;;;4.23;;
15667;SDS011;7934;48.710;9.024;2022-07-29T04:33:20;9.30;;;4.30;;
15667;SDS011;7934;48.710;9.024;2022-07-29T04:35:47;6.03;;;4.23;;
15667;SDS011;7934;48.710;9.024;2022-07-29T04:38:14;4.57;;;4.20;;
15667;SDS011;7934;48.710;9.024;2022-07-29T04:40:43;5.30;;;4.40;;
15667;SDS011;7934;48.710;9.024;2022-07-29T04:43:10;4.70;;;4.30;;
15667;SDS011;7934;48.710;9.024;2022-07-29T04:45:37;4.13;;;3.83;;
15667;SDS011;7934;48.710;9.024;2022-07-29T04:48:04;4.43;;;4.13;;
15667;SDS011;7934;48.710;9.024;2022-07-29T04:50:32;4.60;;;4.30;;
15667;SDS011;7934;48.710;9.024;2022-07-29T04:52:59;4.10;;;3.77;;
15667;SDS011;7934;48.710;9.024;2022-07-29T04:55:26;4.47;;;3.63;;
15667;SDS011;7934;48.710;9.024;2022-07-29T04:57:54;4.20;;;3.90;;
15667;SDS011;7934;48.710;9.024;2022-07-29T05:00:22;5.87;;;4.23;;
15667;SDS011;7934;48.710;9.024;2022-07-29T05:02:49;4.37;;;3.90;;
15667;SDS011;7934;48.710;9.024;2022-07-29T05:05:16;4.00;;;3.80;;
15667;SDS011;7934;48.710;9.024;2022-07-29T05:07:43;5.60;;;3.73;;
15667;SDS011;7934;48.710;9.024;2022-07-29T05:10:10;3.83;;;3.40;;
15667;SDS011;7934;48.710;9.024;2022-07-29T05:12:38;3.90;;;3.17;;
15667;SDS011;7934;48.710;9.024;2022-07-29T05:15:07;3.73;;;3.43;;
15667;SDS011;7934;48.710;9.024;2022-07-29T05:17:34;3.67;;;3.13;;
15667;SDS011;7934;48.710;9.024;2022-07-29T05:20:02;3.13;;;2.90;;
15667;SDS011;7934;48.710;9.024;2022-07-29T05:22:29;3.90;;;3.20;;
15667;SDS011;7934;48.710;9.024;2022-07-29T05:24:56;5.37;;;3.50;;
15667;SDS011;7934;48.710;9.024;2022-07-29T05:27:23;3.37;;;3.00;;
15667;SDS011;7934;48.710;9.024;2022-07-29T05:29:51;3.10;;;2.80;;
15667;SDS011;7934;48.710;9.024;2022-07-29T05:32:20;4.93;;;3.13;;
15667;SDS011;7934;48.710;9.024;2022-07-29T05:34:47;3.07;;;2.97;;
15667;SDS011;7934;48.710;9.024;2022-07-29T05:37:14;3.87;;;3.23;;
15667;SDS011;7934;48.710;9.024;2022-07-29T05:39:41;4.73;;;3.00;;
15667;SDS011;7934;48.710;9.024;2022-07-29T05:42:08;3.70;;;3.33;;
15667;SDS011;7934;48.710;9.024;2022-07-29T05:44:36;4.00;;;3.07;;
15667;SDS011;7934;48.710;9.024;2022-07-29T05:47:03;4.03;;;3.30;;
15667;SDS011;7934;48.710;9.024;2022-07-29T05:49:32;3.50;;;3.30;;
15667;SDS011;7934;48.710;9.024;2022-07-29T05:51:59;3.87;;;3.10;;
15667;SDS011;7934;48.710;9.024;2022-07-29T05:54:27;4.77;;;3.07;;
15667;SDS011;7934;48.710;9.024;2022-07-29T05:56:54;2.63;;;2.53;;
15667;SDS011;7934;48.710;9.024;2022-07-29T05:59:21;2.70;;;2.60;;
15667;SDS011;7934;48.710;9.024;2022-07-29T06:01:48;3.07;;;2.73;;
15667;SDS011;7934;48.710;9.024;2022-07-29T06:04:15;2.97;;;2.80;;
15667;SDS011;7934;48.710;9.024;2022-07-29T06:06:44;4.40;;;2.97;;
15667;SDS011;7934;48.710;9.024;2022-07-29T06:09:11;2.90;;;2.70;;
15667;SDS011;7934;48.710;9.024;2022-07-29T06:11:38;3.13;;;2.93;;
15667;SDS011;7934;48.710;9.024;2022-07-29T06:14:06;4.83;;;2.77;;
15667;SDS011;7934;48.710;9.024;2022-07-29T06:16:33;3.43;;;3.20;;
15667;SDS011;7934;48.710;9.024;2022-07-29T06:19:00;3.40;;;3.00;;
15667;SDS011;7934;48.710;9.024;2022-07-29T06:21:29;3.83;;;2.90;;
15667;SDS011;7934;48.710;9.024;2022-07-29T06:23:57;3.37;;;2.57;;
15667;SDS011;7934;48.710;9.024;2022-07-29T06:26:25;3.00;;;2.80;;
15667;SDS011;7934;48.710;9.024;2022-07-29T06:28:52;2.87;;;2.67;;
15667;SDS011;7934;48.710;9.024;2022-07-29T06:31:19;3.17;;;2.77;;
15667;SDS011;7934;48.710;9.024;2022-07-29T06:33:46;2.70;;;2.50;;
15667;SDS011;7934;48.710;9.024;2022-07-29T06:36:13;2.97;;;2.77;;
15667;SDS011;7934;48.710;9.024;2022-07-29T06:38:40;2.73;;;2.63;;
15667;SDS011;7934;48.710;9.024;2022-07-29T06:41:09;3.03;;;2.87;;
15667;SDS011;7934;48.710;9.024;2022-07-29T06:43:38;5.47;;;3.10;;
15667;SDS011;7934;48.710;9.024;2022-07-29T06:46:06;4.10;;;3.10;;
15667;SDS011;7934;48.710;9.024;2022-07-29T06:48:34;3.23;;;3.03;;
15667;SDS011;7934;48.710;9.024;2022-07-29T06:51:02;3.57;;;3.27;;
15667;SDS011;7934;48.710;9.024;2022-07-29T06:53:29;3.40;;;3.20;;
15667;SDS011;7934;48.710;9.024;2022-07-29T06:55:56;4.50;;;3.30;;
15667;SDS011;7934;48.710;9.024;2022-07-29T06:58:26;5.33;;;3.50;;
15667;SDS011;7934;48.710;9.024;2022-07-29T07:00:53;3.73;;;3.43;;
15667;SDS011;7934;48.710;9.024;2022-07-29T07:03:21;5.40;;;3.00;;
15667;SDS011;7934;48.710;9.024;2022-07-29T07:05:48;4.97;;;3.20;;
15667;SDS011;7934;48.710;9.024;2022-07-29T07:08:15;4.17;;;3.23;;
15667;SDS011;7934;48.710;9.024;2022-07-29T07:10:44;3.33;;;3.13;;
15667;SDS011;7934;48.710;9.024;2022-07-29T07:13:11;3.83;;;3.37;;
15667;SDS011;7934;48.710;9.024;2022-07-29T07:15:40;3.70;;;3.40;;
15667;SDS011;7934;48.710;9.024;2022-07-29T07:18:07;4.03;;;3.20;;
15667;SDS011;7934;48.710;9.024;2022-07-29T07:20:35;3.73;;;3.50;;
15667;SDS011;7934;48.710;9.024;2022-07-29T07:23:06;3.97;;;3.67;;
15667;SDS011;7934;48.710;9.024;2022-07-29T07:25:34;5.07;;;3.53;;
15667;SDS011;7934;48.710;9.024;2022-07-29T07:28:01;3.73;;;3.43;;
15667;SDS011;7934;48.710;9.024;2022-07-29T07:30:28;4.53;;;3.70;;
15667;SDS011;7934;48.710;9.024;2022-07-29T07:33:02;4.00;;;3.50;;
15667;SDS011;7934;48.710;9.024;2022-07-29T07:35:30;3.77;;;3.50;;
15667;SDS011;7934;48.710;9.024;2022-07-29T07:37:57;13.17;;;3.50;;
15667;SDS011;7934;48.710;9.024;2022-07-29T07:40:24;3.20;;;2.97;;
15667;SDS011;7934;48.710;9.024;2022-07-29T07:42:52;3.50;;;3.30;;
15667;SDS011;7934;48.710;9.024;2022-07-29T07:45:32;3.07;;;2.93;;
15667;SDS011;7934;48.710;9.024;2022-07-29T07:48:03;3.30;;;3.10;;
15667;SDS011;7934;48.710;9.024;2022-07-29T07:50:31;4.70;;;3.23;;
15667;SDS011;7934;48.710;9.024;2022-07-29T07:52:59;5.50;;;4.20;;
15667;SDS011;7934;48.710;9.024;2022-07-29T07:55:27;4.73;;;3.30;;
15667;SDS011;7934;48.710;9.024;2022-07-29T07:57:54;4.73;;;3.20;;
15667;SDS011;7934;48.710;9.024;2022-07-29T08:00:22;3.47;;;3.27;;
15667;SDS011;7934;48.710;9.024;2022-07-29T08:02:49;3.53;;;3.25;;
15667;SDS011;7934;48.710;9.024;2022-07-29T08:05:18;3.40;;;3.10;;
15667;SDS011;7934;48.710;9.024;2022-07-29T08:07:46;4.10;;;3.58;;
15667;SDS011;7934;48.710;9.024;2022-07-29T08:10:13;4.95;;;3.40;;
15667;SDS011;7934;48.710;9.024;2022-07-29T08:13:01;3.40;;;3.10;;
15667;SDS011;7934;48.710;9.024;2022-07-29T08:15:29;4.00;;;3.67;;
15667;SDS011;7934;48.710;9.024;2022-07-29T08:17:56;3.70;;;3.33;;
15667;SDS011;7934;48.710;9.024;2022-07-29T08:20:25;3.45;;;3.25;;
15667;SDS011;7934;48.710;9.024;2022-07-29T08:22:52;3.65;;;3.15;;
15667;SDS011;7934;48.710;9.024;2022-07-29T08:25:19;5.43;;;3.33;;
15667;SDS011;7934;48.710;9.024;2022-07-29T08:27:47;3.65;;;3.28;;
15667;SDS011;7934;48.710;9.024;2022-07-29T08:30:15;3.30;;;3.05;;
15667;SDS011;7934;48.710;9.024;2022-07-29T08:32:42;3.47;;;3.17;;
15667;SDS011;7934;48.710;9.024;2022-07-29T08:35:09;6.57;;;2.83;;
15667;SDS011;7934;48.710;9.024;2022-07-29T08:37:38;4.67;;;3.27;;
15667;SDS011;7934;48.710;9.024;2022-07-29T08:40:05;4.15;;;3.03;;
15667;SDS011;7934;48.710;9.024;2022-07-29T08:42:32;3.78;;;3.25;;
15667;SDS011;7934;48.710;9.024;2022-07-29T08:44:59;6.00;;;3.20;;
15667;SDS011;7934;48.710;9.024;2022-07-29T08:47:26;5.13;;;3.07;;
15667;SDS011;7934;48.710;9.024;2022-07-29T08:49:54;6.20;;;2.90;;
15667;SDS011;7934;48.710;9.024;2022-07-29T08:52:21;3.17;;;2.85;;
15667;SDS011;7934;48.710;9.024;2022-07-29T08:54:53;3.65;;;3.25;;
15667;SDS011;7934;48.710;9.024;2022-07-29T08:57:20;5.60;;;3.00;;
15667;SDS011;7934;48.710;9.024;2022-07-29T08:59:48;4.30;;;3.30;;
15667;SDS011;7934;48.710;9.024;2022-07-29T09:02:18;3.78;;;2.90;;
15667;SDS011;7934;48.710;9.024;2022-07-29T09:04:47;4.13;;;3.53;;
15667;SDS011;7934;48.710;9.024;2022-07-29T09:07:15;3.67;;;3.35;;
15667;SDS011;7934;48.710;9.024;2022-07-29T09:09:42;6.72;;;3.28;;
15667;SDS011;7934;48.710;9.024;2022-07-29T09:12:11;4.55;;;2.90;;
15667;SDS011;7934;48.710;9.024;2022-07-29T09:14:39;3.28;;;2.97;;
15667;SDS011;7934;48.710;9.024;2022-07-29T09:17:06;2.58;;;2.47;;
15667;SDS011;7934;48.710;9.024;2022-07-29T09:19:34;4.75;;;2.95;;
15667;SDS011;7934;48.710;9.024;2022-07-29T09:22:03;4.78;;;2.95;;
15667;SDS011;7934;48.710;9.024;2022-07-29T09:24:37;3.10;;;2.80;;
15667;SDS011;7934;48.710;9.024;2022-07-29T09:27:09;4.78;;;2.90;;
15667;SDS011;7934;48.710;9.024;2022-07-29T09:29:38;3.15;;;2.95;;
15667;SDS011;7934;48.710;9.024;2022-07-29T09:32:08;2.95;;;2.80;;
15667;SDS011;7934;48.710;9.024;2022-07-29T09:34:36;3.03;;;2.92;;
15667;SDS011;7934;48.710;9.024;2022-07-29T09:37:03;3.88;;;3.17;;
15667;SDS011;7934;48.710;9.024;2022-07-29T09:39:31;3.03;;;2.75;;
15667;SDS011;7934;48.710;9.024;2022-07-29T09:42:02;7.13;;;3.10;;
15667;SDS011;7934;48.710;9.024;2022-07-29T09:44:44;2.85;;;2.75;;
15667;SDS011;7934;48.710;9.024;2022-07-29T09:47:13;3.38;;;3.08;;
15667;SDS011;7934;48.710;9.024;2022-07-29T09:49:50;3.97;;;3.08;;
15667;SDS011;7934;48.710;9.024;2022-07-29T09:52:17;4.47;;;3.97;;
15667;SDS011;7934;48.710;9.024;2022-07-29T09:54:44;4.30;;;3.25;;
15667;SDS011;7934;48.710;9.024;2022-07-29T09:57:21;3.20;;;2.97;;
15667;SDS011;7934;48.710;9.024;2022-07-29T09:59:56;3.25;;;2.97;;
15667;SDS011;7934;48.710;9.024;2022-07-29T10:02:27;3.80;;;2.90;;
15667;SDS011;7934;48.710;9.024;2022-07-29T10:05:16;6.15;;;2.78;;
15667;SDS011;7934;48.710;9.024;2022-07-29T10:07:44;3.30;;;3.03;;
15667;SDS011;7934;48.710;9.024;2022-07-29T10:10:27;4.28;;;3.05;;
15667;SDS011;7934;48.710;9.024;2022-07-29T10:13:01;6.30;;;3.08;;
15667;SDS011;7934;48.710;9.024;2022-07-29T10:15:41;5.23;;;3.37;;
15667;SDS011;7934;48.710;9.024;2022-07-29T10:18:12;4.37;;;3.50;;
15667;SDS011;7934;48.710;9.024;2022-07-29T10:20:42;4.67;;;3.60;;
15667;SDS011;7934;48.710;9.024;2022-07-29T10:23:09;3.80;;;3.60;;
15667;SDS011;7934;48.710;9.024;2022-07-29T10:25:37;3.73;;;3.43;;
15667;SDS011;7934;48.710;9.024;2022-07-29T10:28:05;6.20;;;4.30;;
15667;SDS011;7934;48.710;9.024;2022-07-29T10:30:32;5.20;;;3.73;;
15667;SDS011;7934;48.710;9.024;2022-07-29T10:33:08;5.40;;;3.70;;
15667;SDS011;7934;48.710;9.024;2022-07-29T10:35:40;4.97;;;4.50;;
15667;SDS011;7934;48.710;9.024;2022-07-29T10:38:27;4.73;;;4.30;;
15667;SDS011;7934;48.710;9.024;2022-07-29T10:40:57;8.77;;;5.13;;
15667;SDS011;7934;48.710;9.024;2022-07-29T10:43:47;29.93;;;9.23;;
15667;SDS011;7934;48.710;9.024;2022-07-29T10:46:14;49.53;;;10.60;;
15667;SDS011;7934;48.710;9.024;2022-07-29T10:51:35;1.03;;;1.03;;
15667;SDS011;7934;48.710;9.024;2022-07-29T10:54:17;0.63;;;0.30;;
15667;SDS011;7934;48.710;9.024;2022-07-29T10:56:45;0.77;;;0.50;;
15667;SDS011;7934;48.710;9.024;2022-07-29T10:59:25;0.50;;;0.50;;
15667;SDS011;7934;48.710;9.024;2022-07-29T11:01:53;0.47;;;0.47;;
15667;SDS011;7934;48.710;9.024;2022-07-29T11:07:09;0.47;;;0.47;;
15667;SDS011;7934;48.710;9.024;2022-07-29T11:09:37;0.60;;;0.60;;
15667;SDS011;7934;48.710;9.024;2022-07-29T11:12:05;1.00;;;0.53;;
15667;SDS011;7934;48.710;9.024;2022-07-29T11:14:56;0.53;;;0.53;;
15667;SDS011;7934;48.710;9.024;2022-07-29T11:17:25;0.87;;;0.87;;
15667;SDS011;7934;48.710;9.024;2022-07-29T11:19:58;0.63;;;0.63;;
15667;SDS011;7934;48.710;9.024;2022-07-29T11:22:45;0.60;;;0.60;;
15667;SDS011;7934;48.710;9.024;2022-07-29T11:25:12;1.20;;;0.63;;
15667;SDS011;7934;48.710;9.024;2022-07-29T11:27:40;0.30;;;0.30;;
15667;SDS011;7934;48.710;9.024;2022-07-29T11:30:09;0.37;;;0.37;;
15667;SDS011;7934;48.710;9.024;2022-07-29T11:32:38;4.87;;;1.03;;
15667;SDS011;7934;48.710;9.024;2022-07-29T11:35:13;0.50;;;0.50;;
15667;SDS011;7934;48.710;9.024;2022-07-29T11:37:40;1.00;;;1.00;;
15667;SDS011;7934;48.710;9.024;2022-07-29T11:40:15;0.80;;;0.60;;
15667;SDS011;7934;48.710;9.024;2022-07-29T11:42:47;0.40;;;0.40;;
15667;SDS011;7934;48.710;9.024;2022-07-29T11:45:17;1.80;;;1.70;;
15667;SDS011;7934;48.710;9.024;2022-07-29T11:47:49;8.77;;;2.50;;
15667;SDS011;7934;48.710;9.024;2022-07-29T11:50:17;0.50;;;0.50;;
15667;SDS011;7934;48.710;9.024;2022-07-29T11:52:45;0.37;;;0.37;;
15667;SDS011;7934;48.710;9.024;2022-07-29T11:55:14;8.20;;;1.73;;
15667;SDS011;7934;48.710;9.024;2022-07-29T11:57:47;0.63;;;0.63;;
15667;SDS011;7934;48.710;9.024;2022-07-29T12:00:24;1.03;;;0.93;;
15667;SDS011;7934;48.710;9.024;2022-07-29T12:02:51;0.43;;;0.43;;
15667;SDS011;7934;48.710;9.024;2022-07-29T12:05:19;0.80;;;0.60;;
15667;SDS011;7934;48.710;9.024;2022-07-29T12:07:47;3.43;;;1.03;;
15667;SDS011;7934;48.710;9.024;2022-07-29T12:10:14;1.27;;;1.27;;
15667;SDS011;7934;48.710;9.024;2022-07-29T12:12:42;1.20;;;0.93;;
15667;SDS011;7934;48.710;9.024;2022-07-29T12:15:16;2.87;;;2.53;;
15667;SDS011;7934;48.710;9.024;2022-07-29T12:17:46;0.80;;;0.80;;
15667;SDS011;7934;48.710;9.024;2022-07-29T12:20:21;0.70;;;0.70;;
15667;SDS011;7934;48.710;9.024;2022-07-29T12:22:49;0.80;;;0.80;;
15667;SDS011;7934;48.710;9.024;2022-07-29T12:25:18;0.40;;;0.40;;
15667;SDS011;7934;48.710;9.024;2022-07-29T12:27:46;0.50;;;0.50;;
15667;SDS011;7934;48.710;9.024;2022-07-29T12:30:15;1.90;;;1.23;;
15667;SDS011;7934;48.710;9.024;2022-07-29T12:32:47;0.27;;;0.27;;
15667;SDS011;7934;48.710;9.024;2022-07-29T12:35:15;0.67;;;0.67;;
15667;SDS011;7934;48.710;9.024;2022-07-29T12:37:44;2.63;;;1.23;;
15667;SDS011;7934;48.710;9.024;2022-07-29T12:40:13;0.30;;;0.30;;
15667;SDS011;7934;48.710;9.024;2022-07-29T12:42:41;0.47;;;0.30;;
15667;SDS011;7934;48.710;9.024;2022-07-29T12:45:09;0.57;;;0.57;;
15667;SDS011;7934;48.710;9.024;2022-07-29T12:47:51;0.20;;;0.20;;
15667;SDS011;7934;48.710;9.024;2022-07-29T12:50:20;0.50;;;0.50;;
15667;SDS011;7934;48.710;9.024;2022-07-29T12:52:47;0.60;;;0.60;;
15667;SDS011;7934;48.710;9.024;2022-07-29T12:55:15;0.40;;;0.40;;
15667;SDS011;7934;48.710;9.024;2022-07-29T12:57:45;0.20;;;0.20;;
15667;SDS011;7934;48.710;9.024;2022-07-29T13:00:14;0.80;;;0.80;;
15667;SDS011;7934;48.710;9.024;2022-07-29T13:02:42;0.10;;;0.10;;
15667;SDS011;7934;48.710;9.024;2022-07-29T13:05:12;0.53;;;0.53;;
15667;SDS011;7934;48.710;9.024;2022-07-29T13:07:39;0.13;;;0.13;;
15667;SDS011;7934;48.710;9.024;2022-07-29T13:10:10;0.60;;;0.60;;
15667;SDS011;7934;48.710;9.024;2022-07-29T13:12:38;0.57;;;0.57;;
15667;SDS011;7934;48.710;9.024;2022-07-29T13:15:12;0.93;;;0.50;;
15667;SDS011;7934;48.710;9.024;2022-07-29T13:17:40;1.40;;;0.60;;
15667;SDS011;7934;48.710;9.024;2022-07-29T13:20:13;2.33;;;0.90;;
15667;SDS011;7934;48.710;9.024;2022-07-29T13:22:41;1.03;;;1.03;;
15667;SDS011;7934;48.710;9.024;2022-07-29T13:25:09;0.33;;;0.33;;
15667;SDS011;7934;48.710;9.024;2022-07-29T13:27:37;0.30;;;0.30;;
15667;SDS011;7934;48.710;9.024;2022-07-29T13:30:06;0.50;;;0.27;;
15667;SDS011;7934;48.710;9.024;2022-07-29T13:32:33;0.70;;;0.70;;
15667;SDS011;7934;48.710;9.024;2022-07-29T13:35:02;0.40;;;0.40;;
15667;SDS011;7934;48.710;9.024;2022-07-29T13:37:33;0.70;;;0.70;;
15667;SDS011;7934;48.710;9.024;2022-07-29T13:40:03;0.70;;;0.70;;
15667;SDS011;7934;48.710;9.024;2022-07-29T13:42:31;0.40;;;0.40;;
15667;SDS011;7934;48.710;9.024;2022-07-29T13:44:58;0.57;;;0.57;;
15667;SDS011;7934;48.710;9.024;2022-07-29T13:47:26;0.40;;;0.40;;
15667;SDS011;7934;48.710;9.024;2022-07-29T13:49:53;0.60;;;0.60;;
15667;SDS011;7934;48.710;9.024;2022-07-29T13:52:20;0.10;;;0.10;;
15667;SDS011;7934;48.710;9.024;2022-07-29T13:54:49;0.60;;;0.60;;
15667;SDS011;7934;48.710;9.024;2022-07-29T13:57:16;0.60;;;0.60;;
15667;SDS011;7934;48.710;9.024;2022-07-29T14:02:44;0.10;;;0.10;;
15667;SDS011;7934;48.710;9.024;2022-07-29T14:05:27;0.27;;;0.27;;
15667;SDS011;7934;48.710;9.024;2022-07-29T14:08:40;0.77;;;0.77;;
15667;SDS011;7934;48.710;9.024;2022-07-29T14:11:24;0.83;;;0.83;;
15667;SDS011;7934;48.710;9.024;2022-07-29T14:13:51;1.67;;;1.50;;
15667;SDS011;7934;48.710;9.024;2022-07-29T14:16:18;0.97;;;0.90;;
15667;SDS011;7934;48.710;9.024;2022-07-29T14:18:45;0.67;;;0.67;;
15667;SDS011;7934;48.710;9.024;2022-07-29T14:21:13;0.77;;;0.77;;
15667;SDS011;7934;48.710;9.024;2022-07-29T14:23:40;0.50;;;0.50;;
15667;SDS011;7934;48.710;9.024;2022-07-29T14:26:08;0.60;;;0.60;;
15667;SDS011;7934;48.710;9.024;2022-07-29T14:28:36;0.60;;;0.60;;
15667;SDS011;7934;48.710;9.024;2022-07-29T14:31:03;2.83;;;1.77;;
15667;SDS011;7934;48.710;9.024;2022-07-29T14:33:30;11.43;;;6.17;;
15667;SDS011;7934;48.710;9.024;2022-07-29T14:35:57;6.57;;;5.97;;
15667;SDS011;7934;48.710;9.024;2022-07-29T14:38:24;7.63;;;6.40;;
15667;SDS011;7934;48.710;9.024;2022-07-29T14:40:52;7.77;;;7.07;;
15667;SDS011;7934;48.710;9.024;2022-07-29T14:43:19;13.80;;;6.40;;
15667;SDS011;7934;48.710;9.024;2022-07-29T14:45:48;8.73;;;6.80;;
15667;SDS011;7934;48.710;9.024;2022-07-29T14:48:15;7.23;;;6.57;;
15667;SDS011;7934;48.710;9.024;2022-07-29T14:50:42;7.03;;;6.33;;
15667;SDS011;7934;48.710;9.024;2022-07-29T14:53:10;7.40;;;6.70;;
15667;SDS011;7934;48.710;9.024;2022-07-29T14:55:38;6.90;;;6.30;;
15667;SDS011;7934;48.710;9.024;2022-07-29T14:58:05;7.23;;;6.60;;
15667;SDS011;7934;48.710;9.024;2022-07-29T15:00:33;7.47;;;6.77;;
15667;SDS011;7934;48.710;9.024;2022-07-29T15:03:11;7.97;;;7.15;;
15667;SDS011;7934;48.710;9.024;2022-07-29T15:05:39;7.17;;;6.57;;
15667;SDS011;7934;48.710;9.024;2022-07-29T15:08:07;8.17;;;6.37;;
15667;SDS011;7934;48.710;9.024;2022-07-29T15:10:34;9.65;;;7.38;;
15667;SDS011;7934;48.710;9.024;2022-07-29T15:13:04;8.03;;;7.23;;
15667;SDS011;7934;48.710;9.024;2022-07-29T15:15:32;8.47;;;7.40;;
15667;SDS011;7934;48.710;9.024;2022-07-29T15:18:00;7.43;;;6.73;;
15667;SDS011;7934;48.710;9.024;2022-07-29T15:20:31;7.90;;;6.50;;